Time;durP1;ratioP1;P1;durP2;ratioP2;P2;SDS_P1;SDS_P2;PMS_P1;PMS_P2;Temp;Humidity;BMP_temperature;BMP_pressure;BME280_temperature;BME280_humidity;BME280_pressure;Samples;Min_cycle;Max_cycle;Signal;HPM_P1;HPM_P2
2023/08/11 00:01:43;;;;;;;0.82;0.30;;;25.10;67.90;;;;;;6347063;27;20035;-56
2023/08/11 00:04:45;;;;;;;0.50;0.40;;;25.20;68.00;;;;;;6347873;27;20039;-55
2023/08/11 00:07:50;;;;;;;1.27;0.60;;;24.80;67.70;;;;;;6329385;28;20104;-54
2023/08/11 00:10:52;;;;;;;1.10;0.52;;;25.20;67.80;;;;;;6312419;28;20043;-55
2023/08/11 00:13:53;;;;;;;0.50;0.30;;;25.20;67.80;;;;;;6349252;28;20042;-55
2023/08/11 00:16:56;;;;;;;1.30;0.57;;;25.10;68.10;;;;;;6348716;28;20088;-56
2023/08/11 00:19:57;;;;;;;0.85;0.40;;;25.10;67.80;;;;;;6348903;28;20039;-56
2023/08/11 00:23:00;;;;;;;0.77;0.40;;;25.10;67.60;;;;;;6346505;27;20051;-54
2023/08/11 00:26:02;;;;;;;0.90;0.50;;;24.90;67.80;;;;;;6345841;28;20057;-55
2023/08/11 00:29:04;;;;;;;0.95;0.52;;;25.10;68.10;;;;;;6330207;28;20035;-54
2023/08/11 00:32:06;;;;;;;1.42;0.52;;;25.20;68.00;;;;;;6347767;28;20051;-54
2023/08/11 00:35:08;;;;;;;1.30;0.50;;;25.10;67.80;;;;;;6348639;27;20043;-56
2023/08/11 00:38:10;;;;;;;1.90;0.80;;;25.00;67.80;;;;;;6350900;27;20600;-55
2023/08/11 00:41:14;;;;;;;1.25;0.57;;;25.10;68.00;;;;;;6351611;27;20031;-56
2023/08/11 00:44:16;;;;;;;1.67;0.60;;;25.00;67.90;;;;;;6353039;27;20035;-56
2023/08/11 00:47:19;;;;;;;1.30;0.50;;;24.50;67.40;;;;;;6350897;28;20039;-56
2023/08/11 00:50:23;;;;;;;1.27;0.70;;;25.00;68.00;;;;;;6352161;27;20070;-55
2023/08/11 00:53:25;;;;;;;1.30;0.60;;;25.90;68.40;;;;;;6332782;28;20095;-54
2023/08/11 00:56:27;;;;;;;1.33;0.70;;;25.00;67.80;;;;;;6351814;27;20142;-53
2023/08/11 00:59:33;;;;;;;1.00;0.60;;;25.00;67.80;;;;;;6351994;27;20049;-56
2023/08/11 01:02:36;;;;;;;1.08;0.50;;;25.10;67.90;;;;;;6352104;28;20043;-54
2023/08/11 01:05:48;;;;;;;0.77;0.55;;;25.00;67.80;;;;;;6352171;27;20035;-55
2023/08/11 01:09:00;;;;;;;2.33;0.82;;;24.90;67.70;;;;;;6353193;27;20039;-60
2023/08/11 01:12:13;;;;;;;1.15;0.50;;;24.70;65.40;;;;;;6332398;28;20054;-59
2023/08/11 01:15:22;;;;;;;1.58;0.68;;;24.90;67.70;;;;;;6351327;27;20035;-59
2023/08/11 01:18:31;;;;;;;1.30;0.57;;;25.10;68.30;;;;;;6352804;27;20114;-59
2023/08/11 01:21:39;;;;;;;0.57;0.40;;;24.90;67.80;;;;;;6297412;27;20043;-59
2023/08/11 01:24:44;;;;;;;0.75;0.43;;;25.00;67.80;;;;;;6334338;22;20134;-56
2023/08/11 01:27:52;;;;;;;0.55;0.40;;;25.00;68.00;;;;;;6280382;28;20044;-50
2023/08/11 01:30:56;;;;;;;0.82;0.50;;;24.80;68.00;;;;;;6282379;28;20514;-52
2023/08/11 01:33:58;;;;;;;1.00;0.60;;;25.10;68.30;;;;;;6298353;28;20040;-49
2023/08/11 01:37:01;;;;;;;0.50;0.40;;;25.00;68.20;;;;;;6298794;28;20044;-48
2023/08/11 01:40:10;;;;;;;1.50;0.70;;;24.50;68.40;;;;;;6299416;28;20387;-51
2023/08/11 01:43:15;;;;;;;0.82;0.40;;;25.00;68.10;;;;;;6297315;28;20523;-50
2023/08/11 01:46:17;;;;;;;1.00;0.45;;;24.80;68.40;;;;;;6297267;28;20111;-49
2023/08/11 01:49:19;;;;;;;1.02;0.63;;;24.10;67.60;;;;;;6299683;28;20043;-49
2023/08/11 01:52:22;;;;;;;0.60;0.30;;;24.70;68.00;;;;;;6282074;28;20395;-50
2023/08/11 01:55:26;;;;;;;0.52;0.40;;;24.90;68.00;;;;;;6299618;28;20036;-51
2023/08/11 01:58:28;;;;;;;1.67;0.57;;;25.00;68.20;;;;;;6299429;28;20040;-47
2023/08/11 02:01:29;;;;;;;1.25;0.65;;;25.20;68.80;;;;;;6298573;28;20059;-49
2023/08/11 02:04:34;;;;;;;0.70;0.40;;;24.90;68.40;;;;;;6297547;28;20044;-48
2023/08/11 02:07:35;;;;;;;0.90;0.50;;;24.50;68.00;;;;;;6298818;28;20043;-52
2023/08/11 02:10:38;;;;;;;0.82;0.40;;;24.70;68.40;;;;;;6299461;28;20058;-51
2023/08/11 02:13:42;;;;;;;0.80;0.50;;;25.00;67.20;;;;;;6298818;28;20039;-49
2023/08/11 02:16:44;;;;;;;1.13;0.50;;;24.90;68.60;;;;;;6297368;28;20628;-49
2023/08/11 02:19:47;;;;;;;0.85;0.40;;;24.50;68.50;;;;;;6297161;28;20089;-51
2023/08/11 02:22:52;;;;;;;0.73;0.40;;;25.00;69.00;;;;;;6296909;28;20062;-49
2023/08/11 02:25:55;;;;;;;0.75;0.50;;;24.90;68.90;;;;;;6279774;28;20036;-52
2023/08/11 02:28:56;;;;;;;1.10;0.47;;;25.00;69.20;;;;;;6298450;28;20043;-52
2023/08/11 02:31:58;;;;;;;0.68;0.40;;;24.90;69.50;;;;;;6297911;28;20111;-50
2023/08/11 02:35:00;;;;;;;1.30;0.40;;;25.00;69.40;;;;;;6302327;28;20036;-52
2023/08/11 02:38:02;;;;;;;1.00;0.50;;;24.60;69.00;;;;;;6316272;28;20093;-50
2023/08/11 02:41:04;;;;;;;0.88;0.40;;;24.90;69.30;;;;;;6316546;28;20043;-48
2023/08/11 02:44:05;;;;;;;0.50;0.30;;;24.90;69.30;;;;;;6316481;28;20533;-53
2023/08/11 02:47:08;;;;;;;0.77;0.47;;;24.90;69.40;;;;;;6316655;28;20096;-49
2023/08/11 02:50:10;;;;;;;1.33;0.50;;;24.60;69.10;;;;;;6316326;28;20040;-52
2023/08/11 02:53:11;;;;;;;0.43;0.35;;;24.60;69.10;;;;;;6314651;28;20067;-51
2023/08/11 02:56:15;;;;;;;0.65;0.43;;;24.90;69.40;;;;;;6313927;28;20040;-52
2023/08/11 02:59:16;;;;;;;0.70;0.45;;;25.10;69.50;;;;;;6314289;28;20082;-48
2023/08/11 03:02:18;;;;;;;0.80;0.30;;;25.10;69.60;;;;;;6309618;28;20036;-48
2023/08/11 03:05:19;;;;;;;1.45;0.57;;;24.70;69.40;;;;;;6312859;28;20542;-51
2023/08/11 03:08:25;;;;;;;0.50;0.40;;;25.10;69.70;;;;;;6313716;28;20024;-50
2023/08/11 03:11:29;;;;;;;0.90;0.55;;;25.10;69.70;;;;;;6313247;28;20089;-52
2023/08/11 03:14:30;;;;;;;0.98;0.52;;;25.00;69.60;;;;;;6313349;28;20032;-53
2023/08/11 03:17:32;;;;;;;0.85;0.35;;;25.00;69.80;;;;;;6313867;28;20540;-51
2023/08/11 03:20:34;;;;;;;1.33;0.50;;;25.20;69.80;;;;;;6315262;28;20115;-50
2023/08/11 03:23:37;;;;;;;0.77;0.43;;;25.10;69.90;;;;;;6315210;28;20036;-49
2023/08/11 03:26:39;;;;;;;0.57;0.50;;;25.20;69.90;;;;;;6315140;28;20032;-50
2023/08/11 03:29:44;;;;;;;0.50;0.30;;;25.10;70.00;;;;;;6310257;28;20047;-49
2023/08/11 03:32:48;;;;;;;0.85;0.40;;;25.10;67.30;;;;;;6310706;28;20460;-48
2023/08/11 03:35:50;;;;;;;0.65;0.30;;;25.00;70.00;;;;;;6314900;28;20144;-49
2023/08/11 03:38:52;;;;;;;1.02;0.30;;;25.10;69.90;;;;;;6314794;28;20517;-50
2023/08/11 03:41:54;;;;;;;0.43;0.30;;;25.10;70.20;;;;;;6315611;28;20052;-51
2023/08/11 03:45:00;;;;;;;0.40;0.30;;;24.80;69.90;;;;;;6315096;28;20120;-52
2023/08/11 03:48:03;;;;;;;0.52;0.30;;;25.20;70.10;;;;;;6313506;28;20088;-51
2023/08/11 03:51:05;;;;;;;1.10;0.60;;;25.00;70.00;;;;;;6316707;28;20088;-49
2023/08/11 03:54:06;;;;;;;0.82;0.43;;;24.90;70.10;;;;;;6315474;28;20494;-51
2023/08/11 03:57:11;;;;;;;0.47;0.35;;;25.10;70.30;;;;;;6312142;28;20115;-51
2023/08/11 04:00:14;;;;;;;0.75;0.30;;;25.10;70.30;;;;;;6314356;28;20088;-50
2023/08/11 04:03:16;;;;;;;0.57;0.40;;;24.90;70.10;;;;;;6313699;28;20051;-54
2023/08/11 04:06:18;;;;;;;0.43;0.28;;;25.10;70.60;;;;;;6314336;28;20399;-52
2023/08/11 04:09:19;;;;;;;1.02;0.35;;;24.80;70.20;;;;;;6314700;28;20043;-49
2023/08/11 04:12:22;;;;;;;0.70;0.40;;;25.10;70.60;;;;;;6314743;28;20040;-51
2023/08/11 04:15:24;;;;;;;0.40;0.30;;;25.10;70.60;;;;;;6315054;28;20044;-50
2023/08/11 04:18:26;;;;;;;0.40;0.40;;;25.10;70.70;;;;;;6313419;28;20514;-51
2023/08/11 04:21:27;;;;;;;0.65;0.30;;;25.10;70.60;;;;;;6314354;28;20055;-51
2023/08/11 04:24:32;;;;;;;0.50;0.30;;;25.20;70.80;;;;;;6314936;28;20036;-48
2023/08/11 04:27:34;;;;;;;1.00;0.50;;;25.10;70.80;;;;;;6313295;28;20443;-51
2023/08/11 04:30:37;;;;;;;0.88;0.40;;;25.20;71.00;;;;;;6309409;28;20605;-52
2023/08/11 04:33:41;;;;;;;0.38;0.38;;;24.50;70.60;;;;;;6312299;28;20024;-50
2023/08/11 04:36:45;;;;;;;0.60;0.30;;;25.10;71.10;;;;;;6311902;28;20056;-49
2023/08/11 04:39:47;;;;;;;0.20;0.20;;;25.10;71.10;;;;;;6312166;28;20076;-50
2023/08/11 04:42:53;;;;;;;0.30;0.30;;;24.90;71.00;;;;;;6309371;28;20522;-49
2023/08/11 04:46:04;;;;;;;0.85;0.30;;;25.10;71.20;;;;;;6312621;28;20089;-53
2023/08/11 04:49:05;;;;;;;0.80;0.50;;;25.00;71.20;;;;;;6314683;28;20499;-50
2023/08/11 04:52:08;;;;;;;0.60;0.32;;;25.10;71.20;;;;;;6277997;28;20101;-51
2023/08/11 04:55:14;;;;;;;0.70;0.40;;;24.70;71.30;;;;;;6313827;28;20039;-49
2023/08/11 04:58:18;;;;;;;0.60;0.40;;;25.10;71.30;;;;;;6312475;28;20046;-51
2023/08/11 05:01:20;;;;;;;0.55;0.30;;;25.10;71.40;;;;;;6305637;28;20041;-50
2023/08/11 05:04:24;;;;;;;0.30;0.20;;;24.90;71.40;;;;;;6296972;28;20032;-52
2023/08/11 05:07:26;;;;;;;0.90;0.50;;;25.00;71.60;;;;;;6297900;28;20036;-49
2023/08/11 05:10:27;;;;;;;0.55;0.30;;;25.00;71.60;;;;;;6301777;28;20039;-51
2023/08/11 05:13:29;;;;;;;0.40;0.30;;;24.90;71.90;;;;;;6301892;28;20036;-50
2023/08/11 05:16:31;;;;;;;0.40;0.40;;;25.00;71.70;;;;;;6300903;28;20214;-52
2023/08/11 05:19:33;;;;;;;0.65;0.40;;;25.00;71.80;;;;;;6301875;28;20040;-53
2023/08/11 05:22:35;;;;;;;0.70;0.35;;;25.00;71.50;;;;;;6301853;28;20035;-50
2023/08/11 05:25:36;;;;;;;0.60;0.40;;;25.00;71.80;;;;;;6306554;28;20074;-52
2023/08/11 05:28:38;;;;;;;0.50;0.40;;;25.10;71.90;;;;;;6305188;28;20040;-51
2023/08/11 05:31:40;;;;;;;0.70;0.30;;;25.10;72.70;;;;;;6307434;28;20039;-53
2023/08/11 05:34:42;;;;;;;0.63;0.40;;;25.00;72.00;;;;;;6305496;28;20129;-50
2023/08/11 05:37:47;;;;;;;0.43;0.40;;;25.10;72.10;;;;;;6307531;28;20036;-52
2023/08/11 05:40:48;;;;;;;0.43;0.43;;;25.00;70.20;;;;;;6306292;28;20060;-53
2023/08/11 05:43:50;;;;;;;0.93;0.50;;;25.10;72.30;;;;;;6304775;28;20071;-53
2023/08/11 05:46:54;;;;;;;0.47;0.32;;;24.80;71.90;;;;;;6304439;28;20123;-53
2023/08/11 05:49:56;;;;;;;0.45;0.40;;;24.90;72.70;;;;;;6305350;28;20036;-49
2023/08/11 05:52:57;;;;;;;0.38;0.30;;;25.00;72.10;;;;;;6286476;28;20036;-51
2023/08/11 05:55:59;;;;;;;0.93;0.32;;;24.70;72.50;;;;;;6303530;28;20113;-50
2023/08/11 05:59:04;;;;;;;0.40;0.25;;;24.90;72.30;;;;;;6304800;28;20043;-53
2023/08/11 06:02:06;;;;;;;0.30;0.30;;;24.70;72.10;;;;;;6301751;28;20036;-52
2023/08/11 06:05:08;;;;;;;0.50;0.40;;;25.00;72.30;;;;;;6302085;28;20032;-52
2023/08/11 06:08:10;;;;;;;0.43;0.40;;;25.10;72.50;;;;;;6294382;28;20036;-50
2023/08/11 06:11:11;;;;;;;0.95;0.50;;;25.10;72.20;;;;;;6313260;28;20340;-50
2023/08/11 06:14:13;;;;;;;0.50;0.40;;;25.10;72.60;;;;;;6306364;28;20032;-53
2023/08/11 06:17:15;;;;;;;0.40;0.20;;;25.10;72.40;;;;;;6313578;28;20051;-50
2023/08/11 06:20:18;;;;;;;0.60;0.40;;;25.10;72.60;;;;;;6310166;28;20044;-53
2023/08/11 06:23:31;;;;;;;0.40;0.30;;;24.70;71.80;;;;;;6313031;28;20526;-52
2023/08/11 06:26:35;;;;;;;1.35;0.40;;;25.10;72.40;;;;;;6313828;28;20040;-50
2023/08/11 06:29:38;;;;;;;0.57;0.30;;;25.20;72.50;;;;;;6311802;28;20317;-52
2023/08/11 06:32:39;;;;;;;0.65;0.40;;;24.80;72.30;;;;;;6310889;28;20542;-49
2023/08/11 06:35:42;;;;;;;0.47;0.38;;;24.90;72.30;;;;;;6312827;28;20070;-50
2023/08/11 06:38:44;;;;;;;0.68;0.43;;;25.00;72.40;;;;;;6313079;28;20044;-53
2023/08/11 06:41:45;;;;;;;0.68;0.40;;;25.20;70.90;;;;;;6313488;28;20047;-55
2023/08/11 06:44:47;;;;;;;0.45;0.40;;;25.10;72.60;;;;;;6313493;28;20040;-54
2023/08/11 06:47:49;;;;;;;0.95;0.40;;;25.10;72.60;;;;;;6312206;28;20051;-55
2023/08/11 06:50:53;;;;;;;0.45;0.40;;;25.10;72.60;;;;;;6288803;28;20108;-53
2023/08/11 06:53:55;;;;;;;0.70;0.50;;;25.00;72.50;;;;;;6309940;28;20047;-51
2023/08/11 06:56:56;;;;;;;0.22;0.22;;;25.20;72.70;;;;;;6310014;28;20048;-55
2023/08/11 06:59:59;;;;;;;0.82;0.40;;;25.20;72.60;;;;;;6311241;28;20044;-50
2023/08/11 07:03:03;;;;;;;0.63;0.40;;;25.10;72.40;;;;;;6293760;28;20036;-54
2023/08/11 07:06:08;;;;;;;0.63;0.60;;;25.30;72.70;;;;;;6308109;28;20047;-53
2023/08/11 07:09:12;;;;;;;0.40;0.30;;;25.10;70.60;;;;;;6305211;28;20094;-53
2023/08/11 07:12:14;;;;;;;0.38;0.32;;;25.30;72.80;;;;;;6292540;28;20036;-53
2023/08/11 07:15:16;;;;;;;1.27;0.50;;;24.80;72.50;;;;;;6307060;28;20036;-50
2023/08/11 07:18:17;;;;;;;2.08;0.95;;;25.20;72.60;;;;;;6306628;28;20090;-53
2023/08/11 07:21:23;;;;;;;2.05;1.02;;;24.40;72.50;;;;;;6310573;28;20659;-51
2023/08/11 07:24:24;;;;;;;2.50;1.08;;;25.30;73.10;;;;;;6308537;28;20536;-52
2023/08/11 07:27:26;;;;;;;2.08;1.00;;;25.20;73.10;;;;;;6310605;28;20035;-51
2023/08/11 07:30:31;;;;;;;3.38;1.30;;;25.30;72.90;;;;;;6308536;28;20173;-54
2023/08/11 07:33:32;;;;;;;2.40;1.10;;;25.10;72.90;;;;;;6309814;28;20128;-52
2023/08/11 07:36:34;;;;;;;4.22;1.25;;;25.10;73.10;;;;;;6280867;28;20044;-52
2023/08/11 07:39:36;;;;;;;2.55;1.00;;;24.30;72.90;;;;;;6280922;28;20040;-54
2023/08/11 07:42:40;;;;;;;2.45;1.15;;;25.10;73.00;;;;;;6307027;28;20109;-52
2023/08/11 07:45:43;;;;;;;3.25;1.10;;;25.00;73.30;;;;;;6285359;28;20229;-52
2023/08/11 07:48:44;;;;;;;2.97;1.58;;;25.10;73.50;;;;;;6264146;28;20349;-54
2023/08/11 07:51:46;;;;;;;4.05;1.52;;;25.10;73.70;;;;;;6305498;28;20040;-51
2023/08/11 07:54:47;;;;;;;1.90;1.00;;;25.20;73.40;;;;;;6308823;28;20032;-55
2023/08/11 07:57:50;;;;;;;2.47;1.08;;;25.20;73.60;;;;;;6311515;28;20047;-48
2023/08/11 08:00:52;;;;;;;1.90;1.02;;;25.30;73.40;;;;;;6281621;28;20040;-53
2023/08/11 08:03:54;;;;;;;2.35;0.95;;;24.90;73.60;;;;;;6269617;28;20052;-50
2023/08/11 08:06:59;;;;;;;3.80;1.30;;;25.30;73.80;;;;;;6274534;28;20066;-54
2023/08/11 08:10:00;;;;;;;3.63;1.30;;;25.20;71.00;;;;;;6305018;28;20044;-53
2023/08/11 08:13:02;;;;;;;3.47;1.30;;;25.20;73.80;;;;;;6273885;28;20820;-53
2023/08/11 08:16:04;;;;;;;3.80;1.38;;;24.80;73.40;;;;;;6304083;28;20591;-54
2023/08/11 08:19:06;;;;;;;3.13;1.40;;;25.20;73.80;;;;;;6308635;28;20115;-53
2023/08/11 08:22:07;;;;;;;3.63;1.58;;;25.20;73.80;;;;;;6304735;28;20085;-52
2023/08/11 08:25:09;;;;;;;1.70;1.23;;;25.20;74.00;;;;;;6307008;28;20040;-52
2023/08/11 08:28:12;;;;;;;2.38;1.20;;;25.20;73.90;;;;;;6308056;28;20044;-54
2023/08/11 08:31:14;;;;;;;2.92;1.20;;;25.20;74.10;;;;;;6307286;28;20044;-54
2023/08/11 08:34:16;;;;;;;2.55;1.40;;;25.10;74.10;;;;;;6305771;28;20039;-55
2023/08/11 08:37:19;;;;;;;2.67;1.20;;;24.80;74.10;;;;;;6303914;28;20044;-52
2023/08/11 08:40:21;;;;;;;2.15;1.30;;;25.20;74.20;;;;;;6288055;28;20042;-53
2023/08/11 08:43:24;;;;;;;2.28;1.35;;;25.30;74.40;;;;;;6288748;28;20575;-54
2023/08/11 08:46:28;;;;;;;1.63;0.90;;;25.30;74.30;;;;;;6292143;28;20379;-54
2023/08/11 08:49:29;;;;;;;2.70;1.33;;;25.20;74.70;;;;;;6274964;28;20032;-53
2023/08/11 08:52:31;;;;;;;3.22;1.55;;;25.20;74.30;;;;;;6278041;28;20047;-54
2023/08/11 08:55:33;;;;;;;3.70;1.20;;;25.20;74.50;;;;;;6297324;28;20044;-54
2023/08/11 08:58:37;;;;;;;2.63;1.00;;;25.30;74.40;;;;;;6297615;28;20452;-52
2023/08/11 09:01:41;;;;;;;2.60;1.42;;;25.30;74.50;;;;;;6302885;28;20081;-54
2023/08/11 09:04:43;;;;;;;1.75;1.10;;;25.20;74.50;;;;;;6285237;28;20548;-54
2023/08/11 09:07:44;;;;;;;3.20;1.30;;;25.00;74.40;;;;;;6304457;28;20040;-52
2023/08/11 09:10:46;;;;;;;2.05;1.05;;;25.30;74.30;;;;;;6298187;28;20036;-53
2023/08/11 09:13:47;;;;;;;2.97;1.10;;;25.50;74.90;;;;;;6302247;28;20686;-52
2023/08/11 09:16:51;;;;;;;3.20;1.48;;;25.40;74.80;;;;;;6304915;28;20051;-53
2023/08/11 09:19:53;;;;;;;3.00;1.40;;;25.30;74.60;;;;;;6281585;28;20074;-54
2023/08/11 09:22:55;;;;;;;2.42;1.23;;;25.50;75.20;;;;;;6279952;28;20063;-55
2023/08/11 09:25:57;;;;;;;2.92;1.30;;;25.40;74.80;;;;;;6301732;28;20032;-52
2023/08/11 09:28:59;;;;;;;2.08;1.00;;;25.30;74.90;;;;;;6301281;28;20029;-54
2023/08/11 09:32:04;;;;;;;2.65;1.00;;;25.30;75.00;;;;;;6299055;28;20723;-51
2023/08/11 09:35:08;;;;;;;2.42;0.80;;;25.30;74.90;;;;;;6295733;28;20052;-52
2023/08/11 09:38:09;;;;;;;1.92;1.08;;;25.30;75.00;;;;;;6296531;28;20133;-54
2023/08/11 09:41:16;;;;;;;1.77;0.90;;;24.80;74.60;;;;;;6296925;28;20036;-54
2023/08/11 09:44:19;;;;;;;2.58;1.10;;;25.20;74.70;;;;;;6285343;28;20044;-53
2023/08/11 09:47:21;;;;;;;3.20;1.20;;;25.30;74.70;;;;;;6287176;28;20056;-52
2023/08/11 09:50:29;;;;;;;2.95;1.23;;;25.40;75.20;;;;;;6302091;28;20028;-53
2023/08/11 09:53:33;;;;;;;3.63;1.00;;;25.30;75.00;;;;;;6273133;28;20325;-54
2023/08/11 09:56:36;;;;;;;1.92;1.00;;;25.00;75.50;;;;;;6298840;28;20473;-53
2023/08/11 09:59:39;;;;;;;1.75;1.10;;;25.20;75.30;;;;;;6297407;28;20115;-52
2023/08/11 10:02:48;;;;;;;1.48;0.73;;;24.80;74.70;;;;;;6292681;28;20792;-53
2023/08/11 10:05:54;;;;;;;2.17;0.93;;;25.30;75.10;;;;;;6301169;28;20028;-54
2023/08/11 10:09:02;;;;;;;1.88;0.90;;;25.40;75.10;;;;;;6294683;28;20040;-54
2023/08/11 10:12:05;;;;;;;1.80;0.80;;;25.30;74.90;;;;;;6278589;28;20379;-52
2023/08/11 10:15:08;;;;;;;1.35;0.70;;;25.20;74.80;;;;;;6291529;28;20089;-49
2023/08/11 10:18:10;;;;;;;1.27;0.70;;;25.30;74.80;;;;;;6300977;28;20590;-52
2023/08/11 10:21:13;;;;;;;1.08;0.52;;;25.40;75.30;;;;;;6296018;28;20088;-53
2023/08/11 10:24:16;;;;;;;2.38;0.70;;;24.90;75.00;;;;;;6284635;28;20043;-52
2023/08/11 10:27:18;;;;;;;1.98;0.93;;;25.30;74.90;;;;;;6290495;28;20036;-51
2023/08/11 10:30:20;;;;;;;0.98;0.57;;;25.40;75.00;;;;;;6287047;28;20040;-51
2023/08/11 10:33:22;;;;;;;1.60;0.50;;;25.10;74.80;;;;;;6287188;28;20324;-54
2023/08/11 10:36:27;;;;;;;0.95;0.50;;;25.30;74.90;;;;;;6285662;28;20040;-53
2023/08/11 10:39:28;;;;;;;0.90;0.50;;;25.30;75.00;;;;;;6271196;28;20036;-52
2023/08/11 10:42:30;;;;;;;0.52;0.30;;;25.50;75.30;;;;;;6293315;28;20033;-49
2023/08/11 10:45:32;;;;;;;0.43;0.32;;;25.10;75.40;;;;;;6291920;28;20033;-48
2023/08/11 10:48:34;;;;;;;0.93;0.50;;;25.40;75.10;;;;;;6294240;28;20048;-50
2023/08/11 10:51:39;;;;;;;1.45;0.40;;;25.20;75.10;;;;;;6296242;28;20039;-51
2023/08/11 10:54:49;;;;;;;1.20;0.47;;;25.40;75.00;;;;;;6298797;28;20044;-53
2023/08/11 10:58:11;;;;;;;0.30;0.20;;;25.20;74.90;;;;;;6276954;28;20538;-50
2023/08/11 11:01:12;;;;;;;;;;;25.30;75.10;;;;;;6283690;28;20548;-51
2023/08/11 11:04:15;;;;;;;;;;;25.60;75.60;;;;;;6302099;28;20526;-51
2023/08/11 11:07:20;;;;;;;2.45;0.35;;;25.20;75.30;;;;;;6275398;28;19920;-53
2023/08/11 11:10:22;;;;;;;0.85;0.40;;;25.20;75.00;;;;;;6280881;28;20028;-52
2023/08/11 11:13:26;;;;;;;0.68;0.30;;;25.30;75.70;;;;;;6297104;28;20032;-51
2023/08/11 11:16:28;;;;;;;0.60;0.40;;;25.20;75.30;;;;;;6296774;28;20036;-52
2023/08/11 11:19:31;;;;;;;1.05;0.70;;;25.30;75.50;;;;;;6296783;28;20466;-52
2023/08/11 11:22:37;;;;;;;1.67;0.80;;;24.70;75.20;;;;;;6299626;28;20119;-52
2023/08/11 11:25:41;;;;;;;1.80;1.00;;;25.00;75.30;;;;;;6301069;28;20098;-51
2023/08/11 11:28:42;;;;;;;1.45;0.70;;;25.20;76.10;;;;;;6296234;28;20446;-50
2023/08/11 11:31:44;;;;;;;1.83;0.93;;;25.10;76.30;;;;;;6301648;28;20067;-50
2023/08/11 11:34:48;;;;;;;1.77;0.80;;;25.10;76.80;;;;;;6304086;28;20102;-53
2023/08/11 11:37:51;;;;;;;1.63;1.02;;;25.10;76.90;;;;;;6299786;28;20613;-53
2023/08/11 11:40:53;;;;;;;1.40;0.90;;;25.10;77.30;;;;;;6298914;28;20532;-53
2023/08/11 11:43:55;;;;;;;1.73;1.08;;;25.00;77.50;;;;;;6309953;28;20032;-51
2023/08/11 11:46:57;;;;;;;2.20;1.00;;;25.10;77.90;;;;;;6309396;28;20094;-51
2023/08/11 11:50:04;;;;;;;1.88;1.10;;;24.90;77.90;;;;;;6311160;28;20047;-51
2023/08/11 11:53:06;;;;;;;2.22;1.38;;;24.60;77.90;;;;;;6310545;28;20038;-53
2023/08/11 11:56:08;;;;;;;4.00;1.20;;;24.90;77.80;;;;;;6292064;28;20539;-55
2023/08/11 11:59:10;;;;;;;2.08;1.08;;;25.00;78.50;;;;;;6310153;28;20470;-52
2023/08/11 12:02:12;;;;;;;1.05;0.95;;;25.00;78.70;;;;;;6312046;28;20036;-51
2023/08/11 12:05:15;;;;;;;1.58;1.25;;;25.00;78.90;;;;;;6309594;28;20123;-52
2023/08/11 12:08:18;;;;;;;2.35;1.02;;;25.00;79.00;;;;;;6307014;28;20521;-51
2023/08/11 12:11:24;;;;;;;1.42;1.08;;;24.60;78.70;;;;;;6309616;28;20066;-53
2023/08/11 12:14:26;;;;;;;2.67;1.38;;;25.00;79.30;;;;;;6310749;28;20039;-52
2023/08/11 12:17:30;;;;;;;1.05;0.82;;;25.00;79.30;;;;;;6309927;28;20063;-52
2023/08/11 12:20:34;;;;;;;1.10;0.80;;;25.10;79.50;;;;;;6309938;28;20115;-54
2023/08/11 12:23:36;;;;;;;1.42;0.98;;;24.80;79.40;;;;;;6310032;28;20028;-49
2023/08/11 12:26:38;;;;;;;1.13;0.80;;;24.90;79.80;;;;;;6290017;28;20043;-53
2023/08/11 12:29:43;;;;;;;1.02;0.80;;;25.00;80.00;;;;;;6309834;28;20161;-54
2023/08/11 12:32:44;;;;;;;1.52;1.15;;;24.90;80.10;;;;;;6312055;28;20040;-52
2023/08/11 12:35:47;;;;;;;1.50;1.40;;;25.10;80.40;;;;;;6314476;28;20620;-54
2023/08/11 12:38:49;;;;;;;1.70;1.38;;;25.10;80.30;;;;;;6298477;28;20066;-51
2023/08/11 12:41:51;;;;;;;2.40;1.58;;;24.70;80.40;;;;;;6317112;28;20503;-52
2023/08/11 12:44:52;;;;;;;1.55;1.30;;;25.10;80.60;;;;;;6316578;28;20081;-54
2023/08/11 12:47:54;;;;;;;1.48;1.38;;;23.50;79.80;;;;;;6314181;28;20040;-51
2023/08/11 12:50:56;;;;;;;1.95;1.30;;;25.00;80.60;;;;;;6308995;28;20067;-53
2023/08/11 12:53:58;;;;;;;1.50;1.30;;;24.80;80.50;;;;;;6311504;28;20418;-54
2023/08/11 12:56:59;;;;;;;1.95;1.40;;;25.10;80.50;;;;;;6312160;28;20056;-53
2023/08/11 13:00:03;;;;;;;1.55;1.05;;;24.70;80.50;;;;;;6311990;28;20519;-53
2023/08/11 13:03:04;;;;;;;1.38;1.23;;;25.10;80.70;;;;;;6313018;28;20445;-51
2023/08/11 13:06:07;;;;;;;0.90;0.82;;;24.80;80.50;;;;;;6312377;28;20302;-53
2023/08/11 13:09:11;;;;;;;1.50;0.88;;;24.70;80.30;;;;;;6311321;28;20071;-51
2023/08/11 13:12:15;;;;;;;1.35;0.90;;;24.70;81.00;;;;;;6311799;28;20286;-54
2023/08/11 13:15:17;;;;;;;1.02;0.70;;;25.20;80.70;;;;;;6311122;28;20035;-51
2023/08/11 13:18:19;;;;;;;0.93;0.80;;;25.20;80.70;;;;;;6312055;28;20056;-52
2023/08/11 13:21:21;;;;;;;0.68;0.50;;;25.10;80.60;;;;;;6311255;28;20240;-52
2023/08/11 13:24:22;;;;;;;0.75;0.40;;;24.70;80.50;;;;;;6313479;28;20107;-54
2023/08/11 13:27:24;;;;;;;0.90;0.63;;;25.10;80.60;;;;;;6314983;28;20086;-54
2023/08/11 13:30:26;;;;;;;1.05;0.65;;;25.00;80.70;;;;;;6315155;28;20040;-55
2023/08/11 13:33:27;;;;;;;0.43;0.38;;;25.00;80.50;;;;;;6316290;28;20040;-53
2023/08/11 13:36:29;;;;;;;1.23;0.63;;;25.10;80.90;;;;;;6315266;28;20032;-52
2023/08/11 13:39:31;;;;;;;0.50;0.30;;;25.00;80.70;;;;;;6314043;28;20032;-54
2023/08/11 13:42:32;;;;;;;0.70;0.47;;;24.80;80.70;;;;;;6311039;28;20045;-49
2023/08/11 13:45:36;;;;;;;0.70;0.45;;;24.90;80.30;;;;;;6312259;28;20032;-54
2023/08/11 13:48:39;;;;;;;0.30;0.20;;;24.70;80.40;;;;;;6313646;28;20132;-55
2023/08/11 13:51:41;;;;;;;0.75;0.38;;;24.90;80.50;;;;;;6313767;28;20495;-51
2023/08/11 13:54:56;;;;;;;1.45;0.28;;;25.00;80.40;;;;;;6314060;28;20047;-55
2023/08/11 13:57:58;;;;;;;0.88;0.30;;;24.50;80.10;;;;;;6313710;28;20228;-51
2023/08/11 14:01:00;;;;;;;0.55;0.40;;;24.70;80.40;;;;;;6311653;28;20073;-51
2023/08/11 14:04:01;;;;;;;1.05;0.40;;;25.10;80.60;;;;;;6310589;28;20676;-54
2023/08/11 14:07:04;;;;;;;0.35;0.28;;;25.20;80.70;;;;;;6306788;28;20579;-53
2023/08/11 14:10:25;;;;;;;0.40;0.25;;;25.00;80.10;;;;;;6286030;28;20036;-52
2023/08/11 14:13:33;;;;;;;0.30;0.22;;;24.90;80.60;;;;;;6310095;28;20036;-55
2023/08/11 14:16:35;;;;;;;0.63;0.20;;;25.20;80.60;;;;;;6311241;28;20047;-53
2023/08/11 14:19:36;;;;;;;0.60;0.30;;;24.70;81.20;;;;;;6309380;28;20043;-53
2023/08/11 14:22:38;;;;;;;0.35;0.20;;;25.00;80.60;;;;;;6311127;28;20059;-50
2023/08/11 14:25:40;;;;;;;1.27;0.30;;;24.90;80.60;;;;;;6309782;28;20039;-51
2023/08/11 14:28:41;;;;;;;0.30;0.20;;;24.90;80.50;;;;;;6303883;28;20101;-53
2023/08/11 14:31:43;;;;;;;0.30;0.22;;;24.60;80.50;;;;;;6307371;28;20481;-53
2023/08/11 14:34:44;;;;;;;0.30;0.20;;;24.90;80.60;;;;;;6309845;28;20039;-51
2023/08/11 14:37:47;;;;;;;0.30;0.20;;;24.90;80.50;;;;;;6310394;28;20600;-50
2023/08/11 14:40:48;;;;;;;0.52;0.20;;;25.10;80.50;;;;;;6309127;28;20043;-51
2023/08/11 14:43:50;;;;;;;0.38;0.17;;;25.30;80.60;;;;;;6309035;28;20491;-50
2023/08/11 14:46:51;;;;;;;0.30;0.15;;;25.10;80.60;;;;;;6306509;28;20360;-51
2023/08/11 14:49:53;;;;;;;0.50;0.20;;;25.20;80.40;;;;;;6306945;28;20036;-54
2023/08/11 14:52:55;;;;;;;0.10;0.10;;;25.10;80.20;;;;;;6308210;28;20101;-51
2023/08/11 14:55:56;;;;;;;0.20;0.10;;;25.10;80.20;;;;;;6307078;28;20251;-52
2023/08/11 14:59:00;;;;;;;0.30;0.20;;;25.10;80.00;;;;;;6307764;28;20410;-53
2023/08/11 15:02:02;;;;;;;0.40;0.20;;;25.30;80.30;;;;;;6307904;28;20226;-52
2023/08/11 15:05:04;;;;;;;0.32;0.20;;;25.20;80.10;;;;;;6307591;28;20433;-53
2023/08/11 15:08:07;;;;;;;0.20;0.17;;;25.30;80.10;;;;;;6307966;28;20477;-52
2023/08/11 15:11:11;;;;;;;0.20;0.20;;;25.30;80.00;;;;;;6291624;28;20245;-52
2023/08/11 15:14:13;;;;;;;0.32;0.17;;;25.50;80.30;;;;;;6308908;28;20329;-52
2023/08/11 15:17:14;;;;;;;0.10;0.10;;;25.20;80.10;;;;;;6307974;28;20056;-52
2023/08/11 15:20:16;;;;;;;0.20;0.10;;;25.30;80.20;;;;;;6309381;28;20698;-54
2023/08/11 15:23:18;;;;;;;0.15;0.10;;;25.30;79.90;;;;;;6305233;28;20041;-54
2023/08/11 15:26:21;;;;;;;0.10;0.10;;;25.30;80.30;;;;;;6309548;28;20032;-51
2023/08/11 15:29:24;;;;;;;0.13;0.10;;;25.20;80.10;;;;;;6310525;28;20040;-52
2023/08/11 15:32:26;;;;;;;0.30;0.10;;;25.40;80.40;;;;;;6309020;28;20028;-53
2023/08/11 15:35:27;;;;;;;0.20;0.13;;;25.40;80.40;;;;;;6307124;28;20179;-51
2023/08/11 15:38:31;;;;;;;0.10;0.10;;;25.20;80.40;;;;;;6306663;28;20082;-50
2023/08/11 15:41:33;;;;;;;0.20;0.20;;;25.20;80.10;;;;;;6308123;28;20043;-51
2023/08/11 15:44:34;;;;;;;0.17;0.17;;;25.30;80.50;;;;;;6308267;28;20052;-51
2023/08/11 15:47:35;;;;;;;0.15;0.13;;;25.30;80.50;;;;;;6305783;28;20028;-53
2023/08/11 15:50:37;;;;;;;0.20;0.20;;;25.40;80.70;;;;;;6305809;28;20056;-52
2023/08/11 15:53:39;;;;;;;0.13;0.10;;;25.30;80.50;;;;;;6304365;28;20036;-51